sensor_id;sensor_type;location;lat;lon;timestamp;pressure;altitude;pressure_sealevel;temperature;humidity
70544;BME280;58097;48.364;-1.224;2023-04-19T00:01:46;99946.34;;;9.93;77.29
70544;BME280;58097;48.364;-1.224;2023-04-19T00:04:11;99941.84;;;9.92;77.26
70544;BME280;58097;48.364;-1.224;2023-04-19T00:06:39;99936.09;;;9.85;78.32
70544;BME280;58097;48.364;-1.224;2023-04-19T00:09:05;99941.34;;;9.79;78.92
70544;BME280;58097;48.364;-1.224;2023-04-19T00:11:31;99942.53;;;9.76;78.19
70544;BME280;58097;48.364;-1.224;2023-04-19T00:13:56;99941.81;;;9.74;78.67
70544;BME280;58097;48.364;-1.224;2023-04-19T00:16:22;99942.69;;;9.75;77.89
70544;BME280;58097;48.364;-1.224;2023-04-19T00:18:47;99944.41;;;9.76;78.41
70544;BME280;58097;48.364;-1.224;2023-04-19T00:21:12;99946.16;;;9.77;78.03
70544;BME280;58097;48.364;-1.224;2023-04-19T00:23:38;99946.16;;;9.77;77.67
70544;BME280;58097;48.364;-1.224;2023-04-19T00:26:03;99940.78;;;9.75;77.53
70544;BME280;58097;48.364;-1.224;2023-04-19T00:28:29;99940.94;;;9.74;77.76
70544;BME280;58097;48.364;-1.224;2023-04-19T00:30:55;99942.84;;;9.73;78.37
70544;BME280;58097;48.364;-1.224;2023-04-19T00:33:20;99937.63;;;9.70;78.27
70544;BME280;58097;48.364;-1.224;2023-04-19T00:35:45;99934.31;;;9.67;78.72
70544;BME280;58097;48.364;-1.224;2023-04-19T00:38:11;99932.44;;;9.67;77.78
70544;BME280;58097;48.364;-1.224;2023-04-19T00:40:37;99935.91;;;9.69;78.27
70544;BME280;58097;48.364;-1.224;2023-04-19T00:43:02;99928.50;;;9.70;77.92
70544;BME280;58097;48.364;-1.224;2023-04-19T00:45:27;99927.47;;;9.71;77.71
70544;BME280;58097;48.364;-1.224;2023-04-19T00:47:54;99920.91;;;9.72;77.62
70544;BME280;58097;48.364;-1.224;2023-04-19T00:50:20;99918.72;;;9.75;78.23
70544;BME280;58097;48.364;-1.224;2023-04-19T00:52:45;99924.22;;;9.75;78.69
70544;BME280;58097;48.364;-1.224;2023-04-19T00:55:11;99913.03;;;9.77;78.49
70544;BME280;58097;48.364;-1.224;2023-04-19T00:57:37;99917.53;;;9.78;78.79
70544;BME280;58097;48.364;-1.224;2023-04-19T01:00:03;99912.72;;;9.80;78.35
70544;BME280;58097;48.364;-1.224;2023-04-19T01:02:31;99906.19;;;9.81;78.51
70544;BME280;58097;48.364;-1.224;2023-04-19T01:04:56;99899.78;;;9.80;78.32
70544;BME280;58097;48.364;-1.224;2023-04-19T01:07:22;99901.53;;;9.81;78.28
70544;BME280;58097;48.364;-1.224;2023-04-19T01:09:47;99899.25;;;9.77;79.08
70544;BME280;58097;48.364;-1.224;2023-04-19T01:12:13;99894.59;;;9.77;79.34
70544;BME280;58097;48.364;-1.224;2023-04-19T01:14:38;99895.59;;;9.76;79.27
70544;BME280;58097;48.364;-1.224;2023-04-19T01:17:05;99886.94;;;9.71;79.43
70544;BME280;58097;48.364;-1.224;2023-04-19T01:19:31;99894.19;;;9.72;79.59
70544;BME280;58097;48.364;-1.224;2023-04-19T01:21:59;99888.13;;;9.69;79.72
70544;BME280;58097;48.364;-1.224;2023-04-19T01:24:24;99879.69;;;9.70;79.75
70544;BME280;58097;48.364;-1.224;2023-04-19T01:26:49;99880.00;;;9.67;79.96
70544;BME280;58097;48.364;-1.224;2023-04-19T01:29:15;99878.66;;;9.71;79.37
70544;BME280;58097;48.364;-1.224;2023-04-19T01:31:42;99874.16;;;9.70;78.98
70544;BME280;58097;48.364;-1.224;2023-04-19T01:34:08;99873.69;;;9.75;79.31
70544;BME280;58097;48.364;-1.224;2023-04-19T01:36:33;99878.91;;;9.78;79.06
70544;BME280;58097;48.364;-1.224;2023-04-19T01:38:58;99873.38;;;9.78;78.88
70544;BME280;58097;48.364;-1.224;2023-04-19T01:41:24;99877.16;;;9.77;78.83
70544;BME280;58097;48.364;-1.224;2023-04-19T01:43:51;99868.56;;;9.80;79.06
70544;BME280;58097;48.364;-1.224;2023-04-19T01:46:17;99871.00;;;9.83;79.13
70544;BME280;58097;48.364;-1.224;2023-04-19T01:48:42;99867.53;;;9.81;79.00
70544;BME280;58097;48.364;-1.224;2023-04-19T01:51:07;99868.56;;;9.80;78.95
70544;BME280;58097;48.364;-1.224;2023-04-19T01:53:33;99867.00;;;9.77;79.50
70544;BME280;58097;48.364;-1.224;2023-04-19T01:55:58;99865.88;;;9.70;80.37
70544;BME280;58097;48.364;-1.224;2023-04-19T01:58:23;99863.28;;;9.69;79.68
70544;BME280;58097;48.364;-1.224;2023-04-19T02:00:49;99861.72;;;9.66;79.77
70544;BME280;58097;48.364;-1.224;2023-04-19T02:03:14;99858.56;;;9.61;79.76
70544;BME280;58097;48.364;-1.224;2023-04-19T02:05:39;99852.19;;;9.60;79.08
70544;BME280;58097;48.364;-1.224;2023-04-19T02:08:05;99856.13;;;9.58;79.77
70544;BME280;58097;48.364;-1.224;2023-04-19T02:10:31;99848.44;;;9.52;80.18
70544;BME280;58097;48.364;-1.224;2023-04-19T02:12:56;99849.31;;;9.52;79.97
70544;BME280;58097;48.364;-1.224;2023-04-19T02:15:22;99839.63;;;9.48;80.96
70544;BME280;58097;48.364;-1.224;2023-04-19T02:17:47;99841.97;;;9.43;81.54
70544;BME280;58097;48.364;-1.224;2023-04-19T02:20:12;99832.69;;;9.44;81.50
70544;BME280;58097;48.364;-1.224;2023-04-19T02:22:38;99840.56;;;9.39;82.35
70544;BME280;58097;48.364;-1.224;2023-04-19T02:25:03;99837.97;;;9.38;82.25
70544;BME280;58097;48.364;-1.224;2023-04-19T02:27:29;99836.63;;;9.42;81.12
70544;BME280;58097;48.364;-1.224;2023-04-19T02:29:54;99839.94;;;9.45;80.79
70544;BME280;58097;48.364;-1.224;2023-04-19T02:32:20;99835.84;;;9.49;80.84
70544;BME280;58097;48.364;-1.224;2023-04-19T02:34:45;99836.84;;;9.48;80.41
70544;BME280;58097;48.364;-1.224;2023-04-19T02:37:11;99841.19;;;9.51;80.37
70544;BME280;58097;48.364;-1.224;2023-04-19T02:39:36;99843.78;;;9.52;80.19
70544;BME280;58097;48.364;-1.224;2023-04-19T02:42:01;99844.38;;;9.56;80.43
70544;BME280;58097;48.364;-1.224;2023-04-19T02:44:27;99844.53;;;9.54;81.34
70544;BME280;58097;48.364;-1.224;2023-04-19T02:46:53;99839.00;;;9.54;81.40
70544;BME280;58097;48.364;-1.224;2023-04-19T02:49:19;99839.63;;;9.48;81.88
70544;BME280;58097;48.364;-1.224;2023-04-19T02:51:45;99833.06;;;9.49;80.69
70544;BME280;58097;48.364;-1.224;2023-04-19T02:54:11;99835.13;;;9.47;81.94
70544;BME280;58097;48.364;-1.224;2023-04-19T02:56:37;99831.50;;;9.47;80.85
70544;BME280;58097;48.364;-1.224;2023-04-19T02:59:03;99832.53;;;9.46;80.56
70544;BME280;58097;48.364;-1.224;2023-04-19T03:01:30;99817.16;;;9.43;80.01
70544;BME280;58097;48.364;-1.224;2023-04-19T03:03:55;99828.91;;;9.45;80.52
70544;BME280;58097;48.364;-1.224;2023-04-19T03:06:21;99825.44;;;9.43;80.06
70544;BME280;58097;48.364;-1.224;2023-04-19T03:08:46;99837.47;;;9.42;80.06
70544;BME280;58097;48.364;-1.224;2023-04-19T03:11:13;99827.47;;;9.41;80.67
70544;BME280;58097;48.364;-1.224;2023-04-19T03:13:38;99824.47;;;9.35;81.88
70544;BME280;58097;48.364;-1.224;2023-04-19T03:16:05;99827.25;;;9.35;80.89
70544;BME280;58097;48.364;-1.224;2023-04-19T03:18:30;99825.97;;;9.29;82.06
70544;BME280;58097;48.364;-1.224;2023-04-19T03:20:56;99824.25;;;9.28;81.66
70544;BME280;58097;48.364;-1.224;2023-04-19T03:23:21;99826.56;;;9.23;82.59
70544;BME280;58097;48.364;-1.224;2023-04-19T03:25:46;99824.13;;;9.20;81.77
70544;BME280;58097;48.364;-1.224;2023-04-19T03:28:12;99824.13;;;9.20;80.99
70544;BME280;58097;48.364;-1.224;2023-04-19T03:30:37;99820.50;;;9.19;80.61
70544;BME280;58097;48.364;-1.224;2023-04-19T03:33:02;99821.53;;;9.18;80.95
70544;BME280;58097;48.364;-1.224;2023-04-19T03:35:28;99826.00;;;9.19;80.59
70544;BME280;58097;48.364;-1.224;2023-04-19T03:37:55;99814.75;;;9.13;82.49
70544;BME280;58097;48.364;-1.224;2023-04-19T03:40:20;99820.88;;;9.07;82.11
70544;BME280;58097;48.364;-1.224;2023-04-19T03:42:45;99814.81;;;9.03;82.33
70544;BME280;58097;48.364;-1.224;2023-04-19T03:45:11;99819.78;;;8.99;82.89
70544;BME280;58097;48.364;-1.224;2023-04-19T03:47:36;99820.34;;;8.93;82.57
70544;BME280;58097;48.364;-1.224;2023-04-19T03:50:01;99816.72;;;8.93;82.01
70544;BME280;58097;48.364;-1.224;2023-04-19T03:52:27;99814.44;;;8.88;82.44
70544;BME280;58097;48.364;-1.224;2023-04-19T03:54:52;99821.69;;;8.89;81.46
70544;BME280;58097;48.364;-1.224;2023-04-19T03:57:18;99815.16;;;8.90;81.19
70544;BME280;58097;48.364;-1.224;2023-04-19T03:59:43;99819.66;;;8.91;81.04
70544;BME280;58097;48.364;-1.224;2023-04-19T04:02:08;99822.25;;;8.93;81.03
70544;BME280;58097;48.364;-1.224;2023-04-19T04:04:34;99817.91;;;8.90;80.82
70544;BME280;58097;48.364;-1.224;2023-04-19T04:06:59;99818.94;;;8.89;80.69
70544;BME280;58097;48.364;-1.224;2023-04-19T04:09:25;99813.56;;;8.88;80.82
70544;BME280;58097;48.364;-1.224;2023-04-19T04:11:50;99812.72;;;8.87;80.71
70544;BME280;58097;48.364;-1.224;2023-04-19T04:14:16;99813.72;;;8.86;81.19
70544;BME280;58097;48.364;-1.224;2023-04-19T04:16:41;99822.16;;;8.85;80.71
70544;BME280;58097;48.364;-1.224;2023-04-19T04:19:06;99815.94;;;8.83;80.33
70544;BME280;58097;48.364;-1.224;2023-04-19T04:21:32;99827.09;;;8.81;79.90
70544;BME280;58097;48.364;-1.224;2023-04-19T04:23:57;99824.66;;;8.78;79.57
70544;BME280;58097;48.364;-1.224;2023-04-19T04:26:25;99820.78;;;8.71;79.22
70544;BME280;58097;48.364;-1.224;2023-04-19T04:28:55;99824.72;;;8.68;79.25
70544;BME280;58097;48.364;-1.224;2023-04-19T04:31:20;99825.72;;;8.67;79.35
70544;BME280;58097;48.364;-1.224;2023-04-19T04:33:46;99828.03;;;8.62;79.39
70544;BME280;58097;48.364;-1.224;2023-04-19T04:36:11;99827.47;;;8.59;79.17
70544;BME280;58097;48.364;-1.224;2023-04-19T04:38:36;99830.38;;;8.57;78.83
70544;BME280;58097;48.364;-1.224;2023-04-19T04:41:02;99823.00;;;8.58;79.58
70544;BME280;58097;48.364;-1.224;2023-04-19T04:43:28;99824.88;;;8.57;79.17
70544;BME280;58097;48.364;-1.224;2023-04-19T04:45:54;99828.09;;;8.53;78.94
70544;BME280;58097;48.364;-1.224;2023-04-19T04:48:21;99820.84;;;8.52;79.08
70544;BME280;58097;48.364;-1.224;2023-04-19T04:50:47;99819.53;;;8.56;80.10
70544;BME280;58097;48.364;-1.224;2023-04-19T04:53:12;99828.09;;;8.53;79.89
70544;BME280;58097;48.364;-1.224;2023-04-19T04:55:38;99825.63;;;8.50;79.89
70544;BME280;58097;48.364;-1.224;2023-04-19T04:58:03;99823.91;;;8.49;81.00
70544;BME280;58097;48.364;-1.224;2023-04-19T05:00:31;99831.19;;;8.40;82.65
70544;BME280;58097;48.364;-1.224;2023-04-19T05:02:57;99832.19;;;8.39;81.05
70544;BME280;58097;48.364;-1.224;2023-04-19T05:05:23;99826.09;;;8.35;82.22
70544;BME280;58097;48.364;-1.224;2023-04-19T05:07:48;99828.13;;;8.33;81.77
70544;BME280;58097;48.364;-1.224;2023-04-19T05:10:14;99823.63;;;8.32;81.00
70544;BME280;58097;48.364;-1.224;2023-04-19T05:12:40;99836.09;;;8.27;82.70
70544;BME280;58097;48.364;-1.224;2023-04-19T05:15:06;99833.66;;;8.24;81.11
70544;BME280;58097;48.364;-1.224;2023-04-19T05:17:31;99829.00;;;8.24;81.15
70544;BME280;58097;48.364;-1.224;2023-04-19T05:19:57;99830.59;;;8.27;81.31
70544;BME280;58097;48.364;-1.224;2023-04-19T05:22:22;99830.75;;;8.25;81.70
70544;BME280;58097;48.364;-1.224;2023-04-19T05:24:48;99833.50;;;8.25;81.04
70544;BME280;58097;48.364;-1.224;2023-04-19T05:27:14;99828.72;;;8.27;81.64
70544;BME280;58097;48.364;-1.224;2023-04-19T05:29:39;99832.06;;;8.21;81.73
70544;BME280;58097;48.364;-1.224;2023-04-19T05:32:05;99827.31;;;8.14;83.49
70544;BME280;58097;48.364;-1.224;2023-04-19T05:34:31;99826.28;;;8.15;83.24
70544;BME280;58097;48.364;-1.224;2023-04-19T05:36:58;99815.28;;;8.15;83.20
70544;BME280;58097;48.364;-1.224;2023-04-19T05:39:23;99820.63;;;8.16;81.84
70544;BME280;58097;48.364;-1.224;2023-04-19T05:41:48;99820.31;;;8.19;81.96
70544;BME280;58097;48.364;-1.224;2023-04-19T05:44:14;99822.78;;;8.22;82.76
70544;BME280;58097;48.364;-1.224;2023-04-19T05:46:39;99829.31;;;8.21;83.76
70544;BME280;58097;48.364;-1.224;2023-04-19T05:49:05;99821.91;;;8.22;83.87
70544;BME280;58097;48.364;-1.224;2023-04-19T05:51:30;99822.63;;;8.24;84.12
70544;BME280;58097;48.364;-1.224;2023-04-19T05:53:56;99818.00;;;8.24;83.14
70544;BME280;58097;48.364;-1.224;2023-04-19T05:56:21;99822.91;;;8.30;82.80
70544;BME280;58097;48.364;-1.224;2023-04-19T05:58:46;99818.09;;;8.32;83.16
70544;BME280;58097;48.364;-1.224;2023-04-19T06:01:12;99818.28;;;8.41;82.78
70544;BME280;58097;48.364;-1.224;2023-04-19T06:03:38;99820.03;;;8.42;83.39
70544;BME280;58097;48.364;-1.224;2023-04-19T06:06:03;99822.94;;;8.40;85.07
70544;BME280;58097;48.364;-1.224;2023-04-19T06:08:28;99816.97;;;8.45;84.85
70544;BME280;58097;48.364;-1.224;2023-04-19T06:10:54;99811.88;;;8.50;84.59
70544;BME280;58097;48.364;-1.224;2023-04-19T06:13:20;99811.25;;;8.56;84.82
70544;BME280;58097;48.364;-1.224;2023-04-19T06:15:47;99816.47;;;8.59;85.86
70544;BME280;58097;48.364;-1.224;2023-04-19T06:18:12;99809.75;;;8.71;84.71
70544;BME280;58097;48.364;-1.224;2023-04-19T06:20:38;99813.47;;;8.80;85.32
70544;BME280;58097;48.364;-1.224;2023-04-19T06:23:04;99809.41;;;8.84;85.89
70544;BME280;58097;48.364;-1.224;2023-04-19T06:25:30;99816.00;;;9.00;84.87
70544;BME280;58097;48.364;-1.224;2023-04-19T06:27:56;99811.84;;;9.14;84.63
70544;BME280;58097;48.364;-1.224;2023-04-19T06:30:21;99810.84;;;9.33;84.83
70544;BME280;58097;48.364;-1.224;2023-04-19T06:32:47;99811.31;;;9.46;84.76
70544;BME280;58097;48.364;-1.224;2023-04-19T06:35:12;99818.19;;;9.60;84.38
70544;BME280;58097;48.364;-1.224;2023-04-19T06:37:39;99813.69;;;9.77;84.28
70544;BME280;58097;48.364;-1.224;2023-04-19T06:40:05;99819.53;;;9.91;84.08
70544;BME280;58097;48.364;-1.224;2023-04-19T06:42:38;99821.16;;;10.02;84.09
70544;BME280;58097;48.364;-1.224;2023-04-19T06:45:04;99818.38;;;10.20;83.54
70544;BME280;58097;48.364;-1.224;2023-04-19T06:47:30;99813.81;;;10.29;83.02
70544;BME280;58097;48.364;-1.224;2023-04-19T06:49:56;99817.41;;;10.47;83.13
70544;BME280;58097;48.364;-1.224;2023-04-19T06:52:21;99823.88;;;10.64;82.73
70544;BME280;58097;48.364;-1.224;2023-04-19T06:54:47;99818.97;;;10.83;82.33
70544;BME280;58097;48.364;-1.224;2023-04-19T06:57:13;99818.13;;;10.91;81.95
70544;BME280;58097;48.364;-1.224;2023-04-19T06:59:38;99818.72;;;11.03;81.55
70544;BME280;58097;48.364;-1.224;2023-04-19T07:02:05;99820.84;;;11.17;81.25
70544;BME280;58097;48.364;-1.224;2023-04-19T07:04:30;99812.28;;;11.36;81.50
70544;BME280;58097;48.364;-1.224;2023-04-19T07:06:56;99806.75;;;11.53;80.80
70544;BME280;58097;48.364;-1.224;2023-04-19T07:09:21;99814.06;;;11.70;80.46
70544;BME280;58097;48.364;-1.224;2023-04-19T07:11:46;99812.00;;;11.72;78.99
70544;BME280;58097;48.364;-1.224;2023-04-19T07:14:12;99811.47;;;11.68;78.44
70544;BME280;58097;48.364;-1.224;2023-04-19T07:16:37;99817.38;;;11.82;79.06
70544;BME280;58097;48.364;-1.224;2023-04-19T07:19:03;99815.50;;;11.98;79.24
70544;BME280;58097;48.364;-1.224;2023-04-19T07:21:28;99816.56;;;11.97;77.43
70544;BME280;58097;48.364;-1.224;2023-04-19T07:23:57;99820.34;;;12.04;78.95
70544;BME280;58097;48.364;-1.224;2023-04-19T07:26:23;99826.94;;;11.95;77.64
70544;BME280;58097;48.364;-1.224;2023-04-19T07:28:48;99820.88;;;11.92;77.55
70544;BME280;58097;48.364;-1.224;2023-04-19T07:31:15;99826.59;;;11.98;78.95
70544;BME280;58097;48.364;-1.224;2023-04-19T07:33:41;99834.88;;;11.82;77.67
70544;BME280;58097;48.364;-1.224;2023-04-19T07:36:07;99827.91;;;11.70;78.07
70544;BME280;58097;48.364;-1.224;2023-04-19T07:38:32;99822.38;;;11.62;77.87
70544;BME280;58097;48.364;-1.224;2023-04-19T07:40:58;99831.84;;;11.51;77.94
70544;BME280;58097;48.364;-1.224;2023-04-19T07:43:23;99828.22;;;11.51;78.38
70544;BME280;58097;48.364;-1.224;2023-04-19T07:45:48;99823.00;;;11.47;78.38
70544;BME280;58097;48.364;-1.224;2023-04-19T07:48:14;99824.03;;;11.38;78.38
70544;BME280;58097;48.364;-1.224;2023-04-19T07:50:39;99815.56;;;11.32;78.76
70544;BME280;58097;48.364;-1.224;2023-04-19T07:53:05;99813.84;;;11.39;79.62
70544;BME280;58097;48.364;-1.224;2023-04-19T07:55:30;99814.19;;;11.52;80.04
70544;BME280;58097;48.364;-1.224;2023-04-19T07:57:55;99814.72;;;11.47;78.42
70544;BME280;58097;48.364;-1.224;2023-04-19T08:00:21;99820.25;;;11.56;78.97
70544;BME280;58097;48.364;-1.224;2023-04-19T08:02:47;99814.22;;;11.60;79.09
70544;BME280;58097;48.364;-1.224;2023-04-19T08:05:14;99809.03;;;11.65;78.99
70544;BME280;58097;48.364;-1.224;2023-04-19T08:07:43;99811.34;;;11.78;79.06
70544;BME280;58097;48.364;-1.224;2023-04-19T08:10:09;99807.38;;;11.97;79.24
70544;BME280;58097;48.364;-1.224;2023-04-19T08:12:35;99813.06;;;12.28;79.79
70544;BME280;58097;48.364;-1.224;2023-04-19T08:15:01;99808.53;;;12.51;78.91
70544;BME280;58097;48.364;-1.224;2023-04-19T08:17:27;99807.28;;;12.70;78.68
70544;BME280;58097;48.364;-1.224;2023-04-19T08:19:52;99809.50;;;12.83;77.68
70544;BME280;58097;48.364;-1.224;2023-04-19T08:22:18;99808.88;;;13.12;78.03
70544;BME280;58097;48.364;-1.224;2023-04-19T08:24:44;99806.50;;;13.40;78.37
70544;BME280;58097;48.364;-1.224;2023-04-19T08:27:10;99805.34;;;13.57;77.67
70544;BME280;58097;48.364;-1.224;2023-04-19T08:29:36;99804.28;;;13.66;76.60
70544;BME280;58097;48.364;-1.224;2023-04-19T08:32:04;99809.28;;;13.71;75.27
70544;BME280;58097;48.364;-1.224;2023-04-19T08:34:29;99801.44;;;13.74;74.83
70544;BME280;58097;48.364;-1.224;2023-04-19T08:36:55;99810.56;;;13.83;75.08
70544;BME280;58097;48.364;-1.224;2023-04-19T08:39:21;99806.13;;;13.74;72.22
70544;BME280;58097;48.364;-1.224;2023-04-19T08:41:47;99808.84;;;13.82;73.92
70544;BME280;58097;48.364;-1.224;2023-04-19T08:44:13;99807.13;;;14.04;75.17
70544;BME280;58097;48.364;-1.224;2023-04-19T08:46:41;99799.50;;;14.20;74.37
70544;BME280;58097;48.364;-1.224;2023-04-19T08:49:07;99803.88;;;14.15;72.57
70544;BME280;58097;48.364;-1.224;2023-04-19T08:51:33;99814.09;;;14.22;73.61
70544;BME280;58097;48.364;-1.224;2023-04-19T08:54:00;99805.47;;;14.32;73.07
70544;BME280;58097;48.364;-1.224;2023-04-19T08:56:28;99810.34;;;14.53;74.38
70544;BME280;58097;48.364;-1.224;2023-04-19T08:58:54;99805.84;;;14.67;73.18
70544;BME280;58097;48.364;-1.224;2023-04-19T09:01:20;99816.72;;;14.76;74.05
70544;BME280;58097;48.364;-1.224;2023-04-19T09:03:46;99807.31;;;14.92;73.15
70544;BME280;58097;48.364;-1.224;2023-04-19T09:06:11;99809.03;;;14.93;71.15
70544;BME280;58097;48.364;-1.224;2023-04-19T09:08:38;99804.53;;;14.92;72.12
70544;BME280;58097;48.364;-1.224;2023-04-19T09:11:04;99803.88;;;15.05;72.72
70544;BME280;58097;48.364;-1.224;2023-04-19T09:13:30;99805.16;;;15.24;72.46
70544;BME280;58097;48.364;-1.224;2023-04-19T09:15:56;99790.38;;;15.38;71.41
70544;BME280;58097;48.364;-1.224;2023-04-19T09:18:24;99791.97;;;15.47;71.91
70544;BME280;58097;48.364;-1.224;2023-04-19T09:20:50;99797.16;;;15.50;69.33
70544;BME280;58097;48.364;-1.224;2023-04-19T09:23:22;99794.38;;;15.65;71.40
70544;BME280;58097;48.364;-1.224;2023-04-19T09:26:00;99789.56;;;15.95;72.21
70544;BME280;58097;48.364;-1.224;2023-04-19T09:28:26;99792.66;;;16.06;70.19
70544;BME280;58097;48.364;-1.224;2023-04-19T09:30:52;99785.69;;;16.17;69.29
70544;BME280;58097;48.364;-1.224;2023-04-19T09:33:36;99784.69;;;16.25;70.19
70544;BME280;58097;48.364;-1.224;2023-04-19T09:36:06;99779.16;;;16.31;69.86
70544;BME280;58097;48.364;-1.224;2023-04-19T09:38:48;99785.88;;;16.37;69.90
70544;BME280;58097;48.364;-1.224;2023-04-19T09:41:14;99785.38;;;16.55;68.98
70544;BME280;58097;48.364;-1.224;2023-04-19T09:43:39;99777.22;;;16.53;67.05
70544;BME280;58097;48.364;-1.224;2023-04-19T09:46:05;99780.25;;;16.58;66.97
70544;BME280;58097;48.364;-1.224;2023-04-19T09:48:30;99775.38;;;16.39;64.71
70544;BME280;58097;48.364;-1.224;2023-04-19T09:51:00;99771.97;;;16.43;66.47
70544;BME280;58097;48.364;-1.224;2023-04-19T09:53:27;99780.66;;;16.55;66.36
70544;BME280;58097;48.364;-1.224;2023-04-19T09:55:53;99770.31;;;16.49;64.84
70544;BME280;58097;48.364;-1.224;2023-04-19T09:58:19;99775.53;;;16.59;67.00
70544;BME280;58097;48.364;-1.224;2023-04-19T10:00:46;99770.91;;;16.72;66.31
70544;BME280;58097;48.364;-1.224;2023-04-19T10:03:14;99769.94;;;16.59;63.42
70544;BME280;58097;48.364;-1.224;2023-04-19T10:05:41;99760.91;;;16.78;65.36
70544;BME280;58097;48.364;-1.224;2023-04-19T10:08:07;99764.03;;;17.03;67.04
70544;BME280;58097;48.364;-1.224;2023-04-19T10:10:33;99766.03;;;17.16;66.32
70544;BME280;58097;48.364;-1.224;2023-04-19T10:13:02;99768.44;;;17.32;64.67
70544;BME280;58097;48.364;-1.224;2023-04-19T10:15:29;99765.19;;;17.22;63.00
70544;BME280;58097;48.364;-1.224;2023-04-19T10:17:55;99759.84;;;17.27;64.13
70544;BME280;58097;48.364;-1.224;2023-04-19T10:20:31;99757.28;;;17.32;64.92
70544;BME280;58097;48.364;-1.224;2023-04-19T10:22:58;99759.25;;;17.38;65.31
70544;BME280;58097;48.364;-1.224;2023-04-19T10:25:28;99758.88;;;17.48;63.39
70544;BME280;58097;48.364;-1.224;2023-04-19T10:27:56;99760.38;;;17.50;64.18
70544;BME280;58097;48.364;-1.224;2023-04-19T10:30:22;99759.69;;;17.35;62.37
70544;BME280;58097;48.364;-1.224;2023-04-19T10:32:56;99751.16;;;17.56;64.11
70544;BME280;58097;48.364;-1.224;2023-04-19T10:35:24;99750.81;;;17.73;63.29
70544;BME280;58097;48.364;-1.224;2023-04-19T10:38:10;99747.09;;;17.65;61.94
70544;BME280;58097;48.364;-1.224;2023-04-19T10:40:59;99749.09;;;17.72;62.26
70544;BME280;58097;48.364;-1.224;2023-04-19T10:45:54;99751.25;;;17.76;62.53
70544;BME280;58097;48.364;-1.224;2023-04-19T10:51:16;99741.59;;;18.18;63.37
70544;BME280;58097;48.364;-1.224;2023-04-19T11:01:38;99738.81;;;18.18;59.80
70544;BME280;58097;48.364;-1.224;2023-04-19T11:04:08;99742.47;;;18.19;57.55
70544;BME280;58097;48.364;-1.224;2023-04-19T11:06:34;99735.16;;;18.18;58.29
70544;BME280;58097;48.364;-1.224;2023-04-19T11:08:59;99729.56;;;18.11;58.87
70544;BME280;58097;48.364;-1.224;2023-04-19T11:11:25;99731.91;;;18.21;58.44
70544;BME280;58097;48.364;-1.224;2023-04-19T11:13:54;99730.44;;;18.32;58.99
70544;BME280;58097;48.364;-1.224;2023-04-19T11:16:19;99730.22;;;18.33;59.19
70544;BME280;58097;48.364;-1.224;2023-04-19T11:18:45;99724.38;;;18.41;57.44
70544;BME280;58097;48.364;-1.224;2023-04-19T11:21:16;99729.56;;;18.51;58.89
70544;BME280;58097;48.364;-1.224;2023-04-19T11:23:42;99730.81;;;18.48;57.65
70544;BME280;58097;48.364;-1.224;2023-04-19T11:26:10;99718.56;;;18.49;56.99
70544;BME280;58097;48.364;-1.224;2023-04-19T11:28:37;99722.88;;;18.52;56.66
70544;BME280;58097;48.364;-1.224;2023-04-19T11:31:02;99714.50;;;18.52;55.87
70544;BME280;58097;48.364;-1.224;2023-04-19T11:33:32;99709.53;;;18.47;55.67
70544;BME280;58097;48.364;-1.224;2023-04-19T11:35:58;99715.34;;;18.66;57.82
70544;BME280;58097;48.364;-1.224;2023-04-19T11:38:26;99709.72;;;18.72;57.14
70544;BME280;58097;48.364;-1.224;2023-04-19T11:41:02;99714.03;;;18.68;55.89
70544;BME280;58097;48.364;-1.224;2023-04-19T11:43:35;99708.63;;;18.86;55.96
70544;BME280;58097;48.364;-1.224;2023-04-19T11:46:08;99698.97;;;18.82;54.43
70544;BME280;58097;48.364;-1.224;2023-04-19T11:48:34;99710.16;;;18.82;54.20
70544;BME280;58097;48.364;-1.224;2023-04-19T11:51:00;99692.47;;;18.88;55.97
70544;BME280;58097;48.364;-1.224;2023-04-19T11:53:26;99695.97;;;18.64;54.23
70544;BME280;58097;48.364;-1.224;2023-04-19T11:58:44;99691.56;;;18.95;55.48
70544;BME280;58097;48.364;-1.224;2023-04-19T12:01:17;99699.16;;;18.87;52.98
70544;BME280;58097;48.364;-1.224;2023-04-19T12:03:54;99687.97;;;18.74;53.33
70544;BME280;58097;48.364;-1.224;2023-04-19T12:06:24;99688.38;;;18.91;54.01
70544;BME280;58097;48.364;-1.224;2023-04-19T12:08:52;99685.72;;;19.03;55.16
70544;BME280;58097;48.364;-1.224;2023-04-19T12:11:20;99685.28;;;19.06;54.05
70544;BME280;58097;48.364;-1.224;2023-04-19T12:13:46;99686.69;;;19.28;55.97
70544;BME280;58097;48.364;-1.224;2023-04-19T12:16:12;99678.16;;;19.55;56.85
70544;BME280;58097;48.364;-1.224;2023-04-19T12:18:48;99674.16;;;19.75;55.53
70544;BME280;58097;48.364;-1.224;2023-04-19T12:21:27;99672.28;;;19.63;53.28
70544;BME280;58097;48.364;-1.224;2023-04-19T12:23:56;99678.84;;;19.82;52.63
70544;BME280;58097;48.364;-1.224;2023-04-19T12:26:23;99679.84;;;19.62;51.15
70544;BME280;58097;48.364;-1.224;2023-04-19T12:28:48;99679.94;;;19.42;52.28
70544;BME280;58097;48.364;-1.224;2023-04-19T12:31:13;99679.94;;;19.42;52.65
70544;BME280;58097;48.364;-1.224;2023-04-19T12:33:40;99681.22;;;19.46;52.42
70544;BME280;58097;48.364;-1.224;2023-04-19T12:36:06;99675.16;;;19.49;52.33
70544;BME280;58097;48.364;-1.224;2023-04-19T12:38:31;99671.03;;;19.59;53.94
70544;BME280;58097;48.364;-1.224;2023-04-19T12:40:56;99670.66;;;19.80;54.40
70544;BME280;58097;48.364;-1.224;2023-04-19T12:43:22;99671.31;;;20.07;54.45
70544;BME280;58097;48.364;-1.224;2023-04-19T12:45:47;99668.41;;;19.95;50.48
70544;BME280;58097;48.364;-1.224;2023-04-19T12:48:12;99667.97;;;19.92;51.47
70544;BME280;58097;48.364;-1.224;2023-04-19T12:50:38;99669.03;;;19.97;53.07
70544;BME280;58097;48.364;-1.224;2023-04-19T12:53:03;99666.88;;;19.93;51.29
70544;BME280;58097;48.364;-1.224;2023-04-19T12:55:30;99662.66;;;20.08;51.51
70544;BME280;58097;48.364;-1.224;2023-04-19T12:57:56;99664.38;;;20.09;50.98
70544;BME280;58097;48.364;-1.224;2023-04-19T13:00:21;99661.88;;;20.01;49.47
70544;BME280;58097;48.364;-1.224;2023-04-19T13:02:46;99663.22;;;19.92;49.38
70544;BME280;58097;48.364;-1.224;2023-04-19T13:05:13;99669.81;;;19.79;49.04
70544;BME280;58097;48.364;-1.224;2023-04-19T13:07:38;99662.50;;;19.78;51.09